Time;durP1;ratioP1;P1;durP2;ratioP2;P2;SDS_P1;SDS_P2;PMS_P1;PMS_P2;Temp;Humidity;BMP_temperature;BMP_pressure;BME280_temperature;BME280_humidity;BME280_pressure;Samples;Min_cycle;Max_cycle;Signal;HPM_P1;HPM_P2
2021/10/13 00:01:41;;;;;;;7.87;5.83;;;4.60;99.90;;;;;;5124508;27;20819;-62
2021/10/13 00:04:08;;;;;;;9.80;6.40;;;4.60;99.90;;;;;;5118040;27;20903;-62
2021/10/13 00:06:35;;;;;;;6.97;5.37;;;4.60;99.90;;;;;;5117137;27;20458;-62
2021/10/13 00:09:04;;;;;;;9.10;5.27;;;4.60;99.90;;;;;;5117845;27;20484;-62
2021/10/13 00:11:30;;;;;;;8.60;5.87;;;4.50;99.90;;;;;;5118138;27;20455;-62
2021/10/13 00:13:57;;;;;;;10.17;6.70;;;4.60;99.90;;;;;;5117788;27;20804;-62
2021/10/13 00:16:24;;;;;;;6.87;5.40;;;4.50;99.90;;;;;;5116936;27;20476;-62
2021/10/13 00:18:51;;;;;;;7.10;6.37;;;4.50;99.90;;;;;;5117770;27;20836;-62
2021/10/13 00:21:18;;;;;;;9.47;6.47;;;4.60;99.90;;;;;;5118036;27;20543;-62
2021/10/13 00:23:45;;;;;;;9.90;5.97;;;4.60;99.90;;;;;;5117092;27;20941;-62
2021/10/13 00:26:13;;;;;;;6.10;5.50;;;4.70;99.90;;;;;;5135272;27;20548;-62
2021/10/13 00:28:40;;;;;;;5.73;5.13;;;4.70;99.90;;;;;;5135663;27;20881;-62
2021/10/13 00:31:08;;;;;;;9.43;5.13;;;4.80;99.90;;;;;;5126090;27;20429;-61
2021/10/13 00:33:35;;;;;;;7.93;5.30;;;4.80;99.90;;;;;;5127951;27;20505;-61
2021/10/13 00:36:03;;;;;;;7.70;5.40;;;4.80;99.90;;;;;;5127144;27;20479;-61
2021/10/13 00:38:32;;;;;;;13.73;5.77;;;4.70;99.90;;;;;;5124707;27;20448;-61
2021/10/13 00:40:59;;;;;;;7.90;5.50;;;4.80;99.90;;;;;;5127088;27;20821;-61
2021/10/13 00:43:27;;;;;;;8.10;5.50;;;4.70;99.90;;;;;;5136912;27;20433;-61
2021/10/13 00:45:55;;;;;;;10.43;5.10;;;4.70;99.90;;;;;;5129869;27;20455;-61
2021/10/13 00:48:22;;;;;;;8.27;5.23;;;4.70;99.90;;;;;;5127424;27;20554;-61
2021/10/13 00:50:50;;;;;;;6.83;5.23;;;4.60;99.90;;;;;;5122959;27;20430;-61
2021/10/13 00:53:18;;;;;;;6.80;5.50;;;4.60;99.90;;;;;;5126033;27;20499;-61
2021/10/13 00:55:45;;;;;;;8.80;6.57;;;4.50;99.90;;;;;;5126377;27;20479;-61
2021/10/13 00:58:12;;;;;;;7.90;5.70;;;4.50;99.90;;;;;;5126525;27;20463;-61
2021/10/13 01:00:43;;;;;;;10.67;5.43;;;4.40;99.90;;;;;;5122725;27;20458;-61
2021/10/13 01:03:17;;;;;;;9.03;5.70;;;4.40;99.90;;;;;;5140016;27;20481;-61
2021/10/13 01:05:57;;;;;;;6.47;5.80;;;4.40;99.90;;;;;;5144666;27;20454;-61
2021/10/13 01:08:34;;;;;;;6.53;5.17;;;4.40;99.90;;;;;;5143409;27;20482;-61
2021/10/13 01:11:18;;;;;;;9.60;6.37;;;4.40;99.90;;;;;;5147747;27;20453;-62
2021/10/13 01:13:55;;;;;;;6.30;4.77;;;4.40;99.90;;;;;;5144469;27;20450;-62
2021/10/13 01:16:34;;;;;;;11.70;5.80;;;4.30;99.90;;;;;;5142957;27;20504;-62
2021/10/13 01:19:07;;;;;;;8.90;5.00;;;4.30;99.90;;;;;;5143170;27;20437;-62
2021/10/13 01:21:49;;;;;;;7.47;5.50;;;4.30;99.90;;;;;;5146002;27;20452;-62
2021/10/13 01:24:39;;;;;;;9.17;6.20;;;4.30;99.90;;;;;;5146878;27;20807;-62
2021/10/13 01:27:51;;;;;;;10.80;5.43;;;4.20;99.90;;;;;;5143501;27;20550;-62
2021/10/13 01:30:19;;;;;;;8.03;5.53;;;4.10;99.90;;;;;;5147447;27;21135;-62
2021/10/13 01:32:51;;;;;;;10.90;5.43;;;4.10;99.90;;;;;;5146092;27;20474;-62
2021/10/13 01:35:20;;;;;;;8.57;5.87;;;4.00;99.90;;;;;;5151789;27;20536;-62
2021/10/13 01:37:51;;;;;;;14.00;6.13;;;4.10;99.90;;;;;;5154850;27;21089;-62
2021/10/13 01:40:20;;;;;;;9.83;5.83;;;4.10;99.90;;;;;;5144121;27;21025;-62
2021/10/13 01:42:52;;;;;;;7.47;5.90;;;4.20;99.90;;;;;;5145459;27;20503;-62
2021/10/13 01:45:20;;;;;;;8.43;6.17;;;4.10;99.90;;;;;;5143336;27;20479;-61
2021/10/13 01:47:49;;;;;;;8.17;6.87;;;4.00;99.90;;;;;;5146106;27;20482;-61
2021/10/13 01:50:18;;;;;;;11.37;6.47;;;4.00;99.90;;;;;;5145305;27;20481;-61
2021/10/13 01:52:48;;;;;;;11.30;7.03;;;4.00;99.90;;;;;;5142958;27;20445;-61
2021/10/13 01:55:16;;;;;;;7.00;5.63;;;4.00;99.90;;;;;;5145314;27;20453;-61
2021/10/13 01:57:46;;;;;;;8.00;5.40;;;4.00;99.90;;;;;;5147059;27;20478;-61
2021/10/13 02:00:21;;;;;;;9.00;6.27;;;3.90;99.90;;;;;;5136316;28;20457;-61
2021/10/13 02:02:50;;;;;;;11.20;6.13;;;3.80;99.90;;;;;;5116296;28;20567;-61
2021/10/13 02:05:17;;;;;;;6.20;5.60;;;3.70;99.90;;;;;;5138041;27;20478;-61
2021/10/13 02:07:46;;;;;;;7.93;5.97;;;3.70;99.90;;;;;;5145920;27;20460;-61
2021/10/13 02:10:14;;;;;;;10.20;5.70;;;3.70;99.90;;;;;;5146792;27;20454;-61
2021/10/13 02:12:43;;;;;;;11.10;6.20;;;3.60;99.90;;;;;;5145707;27;20459;-61
2021/10/13 02:15:12;;;;;;;8.03;6.17;;;3.60;99.90;;;;;;5144629;27;20780;-61
2021/10/13 02:17:45;;;;;;;12.60;6.50;;;3.60;99.90;;;;;;5142570;27;20457;-61
2021/10/13 02:20:12;;;;;;;10.20;6.23;;;3.60;99.90;;;;;;5144990;27;20481;-61
2021/10/13 02:22:43;;;;;;;8.80;7.03;;;3.60;99.90;;;;;;5144841;27;20497;-61
2021/10/13 02:25:10;;;;;;;10.00;6.50;;;3.50;99.90;;;;;;5145840;27;20468;-61
2021/10/13 02:27:45;;;;;;;9.80;6.17;;;3.60;99.90;;;;;;5147431;27;20484;-61
2021/10/13 02:30:12;;;;;;;9.60;6.93;;;3.70;99.90;;;;;;5146100;27;20457;-61
2021/10/13 02:32:41;;;;;;;9.07;6.60;;;3.70;99.90;;;;;;5142071;27;20883;-61
2021/10/13 02:35:09;;;;;;;7.80;6.60;;;3.60;99.90;;;;;;5145847;27;20518;-61
2021/10/13 02:37:36;;;;;;;9.40;6.60;;;3.60;99.90;;;;;;5147134;27;20452;-61
2021/10/13 02:40:04;;;;;;;8.27;6.70;;;3.60;99.90;;;;;;5149316;27;20934;-62
2021/10/13 02:42:33;;;;;;;8.43;6.00;;;3.60;99.90;;;;;;5148821;27;20835;-62
2021/10/13 02:45:01;;;;;;;10.90;7.13;;;3.60;99.90;;;;;;5146028;27;20476;-62
2021/10/13 02:47:36;;;;;;;8.97;6.93;;;3.70;99.90;;;;;;5150931;27;20479;-62
2021/10/13 02:50:12;;;;;;;9.43;7.10;;;3.70;99.90;;;;;;5139526;27;20465;-62
2021/10/13 02:52:45;;;;;;;12.20;7.00;;;3.80;99.90;;;;;;5139533;27;20460;-62
2021/10/13 02:55:18;;;;;;;10.90;8.30;;;3.90;99.90;;;;;;5139288;27;20500;-62
2021/10/13 02:57:51;;;;;;;10.07;7.80;;;4.00;99.90;;;;;;5139174;27;20549;-61
2021/10/13 03:00:20;;;;;;;8.60;6.80;;;4.00;99.90;;;;;;5137736;27;20486;-61
2021/10/13 03:02:56;;;;;;;10.93;7.83;;;4.00;99.90;;;;;;5117939;28;20483;-62
2021/10/13 03:05:27;;;;;;;8.73;6.70;;;4.10;99.90;;;;;;5118695;28;20502;-62
2021/10/13 03:07:56;;;;;;;8.57;7.37;;;4.20;99.90;;;;;;5118510;28;20536;-62
2021/10/13 03:10:25;;;;;;;8.73;7.10;;;4.20;99.90;;;;;;5118486;28;20459;-62
2021/10/13 03:12:54;;;;;;;9.53;6.97;;;4.20;99.90;;;;;;5119226;28;20463;-62
2021/10/13 03:15:27;;;;;;;8.97;7.33;;;4.30;99.90;;;;;;5119322;28;20503;-62
2021/10/13 03:17:56;;;;;;;12.93;8.07;;;4.40;99.90;;;;;;5119507;28;20463;-62
2021/10/13 03:20:26;;;;;;;10.23;7.90;;;4.40;99.90;;;;;;5148425;27;20531;-62
2021/10/13 03:22:57;;;;;;;12.57;7.20;;;4.40;99.90;;;;;;5124996;27;20468;-62
2021/10/13 03:25:24;;;;;;;9.00;7.23;;;4.40;99.90;;;;;;5160623;27;20896;-62
2021/10/13 03:27:51;;;;;;;9.30;7.60;;;4.50;99.90;;;;;;5151755;27;20542;-62
2021/10/13 03:30:18;;;;;;;10.73;7.80;;;4.50;99.90;;;;;;5139379;27;20486;-62
2021/10/13 03:32:46;;;;;;;10.70;7.70;;;4.50;99.90;;;;;;5139344;27;20501;-62
2021/10/13 03:35:22;;;;;;;8.57;7.20;;;4.60;99.90;;;;;;5139656;27;20454;-62
2021/10/13 03:37:50;;;;;;;9.57;7.87;;;4.70;99.90;;;;;;5119181;28;20584;-62
2021/10/13 03:40:20;;;;;;;11.30;8.27;;;4.70;99.90;;;;;;5118805;28;20487;-62
2021/10/13 03:42:47;;;;;;;11.83;8.40;;;4.80;99.90;;;;;;5118934;28;20456;-62
2021/10/13 03:45:15;;;;;;;10.80;9.53;;;4.90;99.90;;;;;;5118796;28;20495;-62
2021/10/13 03:47:43;;;;;;;15.30;10.33;;;4.90;99.90;;;;;;5118864;28;20523;-63
2021/10/13 03:50:10;;;;;;;20.77;11.40;;;5.00;99.90;;;;;;5117858;28;20464;-63
2021/10/13 03:52:37;;;;;;;23.17;13.90;;;5.10;99.90;;;;;;5122517;27;20479;-63
2021/10/13 03:55:08;;;;;;;36.13;18.97;;;5.20;99.90;;;;;;5159890;27;20548;-63
2021/10/13 03:57:35;;;;;;;57.97;22.33;;;5.30;99.90;;;;;;5160158;27;20525;-63
2021/10/13 04:00:04;;;;;;;86.30;27.27;;;5.40;99.90;;;;;;5160179;27;20493;-63
2021/10/13 04:02:31;;;;;;;56.37;25.87;;;5.50;99.90;;;;;;5138648;27;20503;-63
2021/10/13 04:05:03;;;;;;;74.97;26.87;;;5.70;99.90;;;;;;5138803;27;20508;-63
2021/10/13 04:07:30;;;;;;;58.70;25.67;;;5.70;99.90;;;;;;5139268;27;20498;-63
2021/10/13 04:09:57;;;;;;;71.03;25.67;;;5.70;99.90;;;;;;5139013;27;20487;-63
2021/10/13 04:12:25;;;;;;;84.10;28.93;;;5.80;99.90;;;;;;5138527;27;20486;-63
2021/10/13 04:14:52;;;;;;;74.57;27.83;;;5.90;99.90;;;;;;5138798;27;20468;-63
2021/10/13 04:17:19;;;;;;;69.90;28.00;;;5.90;99.90;;;;;;5138721;27;20494;-63
2021/10/13 04:19:46;;;;;;;118.30;31.40;;;5.90;99.90;;;;;;5139167;27;20530;-63
2021/10/13 04:22:13;;;;;;;65.23;28.33;;;6.00;99.90;;;;;;5138521;27;20524;-63
2021/10/13 04:24:40;;;;;;;92.87;29.77;;;6.00;99.90;;;;;;5138917;27;20520;-63
2021/10/13 04:27:07;;;;;;;82.70;27.83;;;6.10;99.90;;;;;;5143689;27;20849;-63
2021/10/13 04:29:38;;;;;;;96.20;29.37;;;6.00;99.90;;;;;;5159411;27;20497;-63
2021/10/13 04:32:06;;;;;;;79.10;30.30;;;6.10;99.90;;;;;;5159476;27;20467;-63
2021/10/13 04:34:32;;;;;;;66.30;28.20;;;6.10;99.90;;;;;;5159124;27;20822;-63
2021/10/13 04:36:59;;;;;;;83.77;28.27;;;6.10;99.90;;;;;;5159200;27;20878;-63
2021/10/13 04:39:29;;;;;;;82.33;29.10;;;6.10;99.90;;;;;;5159124;27;20479;-63
2021/10/13 04:41:56;;;;;;;77.63;29.43;;;6.10;99.90;;;;;;5159218;27;20458;-63
2021/10/13 04:44:25;;;;;;;74.97;29.27;;;6.10;99.90;;;;;;5158926;27;20500;-63
2021/10/13 04:46:54;;;;;;;65.40;26.53;;;6.20;99.90;;;;;;5158681;27;20432;-63
2021/10/13 04:49:21;;;;;;;109.13;27.83;;;6.20;99.90;;;;;;5159162;27;20467;-63
2021/10/13 04:51:48;;;;;;;110.63;29.17;;;6.20;99.90;;;;;;5158930;27;20435;-63
2021/10/13 04:54:15;;;;;;;73.27;26.93;;;6.10;99.90;;;;;;5158485;27;20504;-63
2021/10/13 04:56:42;;;;;;;64.73;25.57;;;6.10;99.90;;;;;;5158692;27;20462;-63
2021/10/13 04:59:09;;;;;;;75.33;27.57;;;6.10;99.90;;;;;;5158579;27;20478;-63
2021/10/13 05:01:35;;;;;;;59.07;27.70;;;6.20;99.90;;;;;;5145085;27;20462;-63
2021/10/13 05:04:04;;;;;;;103.40;29.40;;;6.20;99.90;;;;;;5117499;28;20525;-63
2021/10/13 05:06:31;;;;;;;90.13;30.43;;;6.30;99.90;;;;;;5117129;28;20882;-63
2021/10/13 05:08:58;;;;;;;62.67;27.70;;;6.30;99.90;;;;;;5116960;28;20538;-63
2021/10/13 05:11:25;;;;;;;103.10;31.17;;;6.30;99.90;;;;;;5117449;28;20480;-63
2021/10/13 05:13:52;;;;;;;88.63;31.43;;;6.30;99.90;;;;;;5117272;28;20820;-63
2021/10/13 05:16:19;;;;;;;90.60;28.77;;;6.30;99.90;;;;;;5117047;28;20495;-63
2021/10/13 05:18:46;;;;;;;67.27;28.93;;;6.30;99.90;;;;;;5117189;28;20521;-63
2021/10/13 05:21:15;;;;;;;65.97;28.00;;;6.40;99.90;;;;;;5116933;28;20460;-63
2021/10/13 05:23:45;;;;;;;64.57;29.73;;;6.40;99.90;;;;;;5117115;28;20933;-63
2021/10/13 05:26:11;;;;;;;67.23;32.10;;;6.40;99.90;;;;;;5116611;28;20459;-63
2021/10/13 05:28:39;;;;;;;68.43;29.80;;;6.50;99.90;;;;;;5134664;27;20490;-63
2021/10/13 05:31:06;;;;;;;72.73;30.30;;;6.50;99.90;;;;;;5137250;27;20505;-63
2021/10/13 05:33:33;;;;;;;57.53;27.63;;;6.50;99.90;;;;;;5137906;27;20481;-63
2021/10/13 05:36:02;;;;;;;54.70;28.67;;;6.50;99.90;;;;;;5137436;27;20490;-63
2021/10/13 05:38:33;;;;;;;57.87;30.37;;;6.50;99.90;;;;;;5137005;27;20553;-63
2021/10/13 05:41:03;;;;;;;62.57;30.00;;;6.50;99.90;;;;;;5137183;27;20470;-63
2021/10/13 05:43:30;;;;;;;63.97;30.53;;;6.60;99.90;;;;;;5137290;27;20469;-63
2021/10/13 05:45:57;;;;;;;66.10;30.80;;;6.60;99.90;;;;;;5137611;27;20489;-63
2021/10/13 05:48:26;;;;;;;56.43;28.00;;;6.60;99.90;;;;;;5137090;27;20537;-63
2021/10/13 05:51:00;;;;;;;66.43;31.37;;;6.60;99.90;;;;;;5137076;28;20912;-63
2021/10/13 05:53:28;;;;;;;67.87;31.90;;;6.60;99.90;;;;;;5137581;28;20485;-63
2021/10/13 05:55:57;;;;;;;76.00;31.10;;;6.60;99.90;;;;;;5137254;28;20469;-63
2021/10/13 05:58:28;;;;;;;57.60;29.47;;;6.70;99.90;;;;;;5136580;28;20460;-63
2021/10/13 06:00:55;;;;;;;71.47;29.43;;;6.70;99.90;;;;;;5133030;28;20461;-63
2021/10/13 06:03:29;;;;;;;62.73;28.93;;;6.70;99.90;;;;;;5135619;27;20581;-63
2021/10/13 06:05:56;;;;;;;59.70;29.03;;;6.70;99.90;;;;;;5136200;28;20562;-63
2021/10/13 06:08:26;;;;;;;53.77;27.87;;;6.70;99.90;;;;;;5135916;28;20505;-63
2021/10/13 06:10:59;;;;;;;66.13;29.97;;;6.70;99.90;;;;;;5136556;28;20503;-63
2021/10/13 06:13:30;;;;;;;66.47;31.53;;;6.80;99.90;;;;;;5138366;27;20496;-63
2021/10/13 06:15:57;;;;;;;71.93;31.80;;;6.80;99.90;;;;;;5141242;27;20520;-63
2021/10/13 06:18:24;;;;;;;74.10;32.50;;;6.80;99.90;;;;;;5140551;27;20458;-63
2021/10/13 06:20:51;;;;;;;89.43;31.93;;;6.80;99.90;;;;;;5140837;27;20794;-63
2021/10/13 06:23:21;;;;;;;67.20;32.93;;;6.80;99.90;;;;;;5141359;27;20501;-63
2021/10/13 06:25:48;;;;;;;77.30;33.10;;;6.80;99.90;;;;;;5141051;27;20509;-63
2021/10/13 06:28:16;;;;;;;71.20;34.70;;;6.80;99.90;;;;;;5140649;27;20878;-63
2021/10/13 06:30:43;;;;;;;65.27;30.73;;;6.80;99.90;;;;;;5140615;27;20502;-63
2021/10/13 06:33:11;;;;;;;67.10;28.90;;;6.70;99.90;;;;;;5140839;27;20497;-63
2021/10/13 06:35:38;;;;;;;61.40;30.80;;;6.70;99.90;;;;;;5140374;27;20841;-63
2021/10/13 06:38:05;;;;;;;61.30;31.07;;;6.60;99.90;;;;;;5140924;27;20486;-63
2021/10/13 06:40:35;;;;;;;72.53;30.20;;;6.70;99.90;;;;;;5140531;27;20953;-63
2021/10/13 06:43:04;;;;;;;68.73;30.70;;;6.80;99.90;;;;;;5140700;27;20486;-63
2021/10/13 06:45:35;;;;;;;59.87;29.67;;;6.80;99.90;;;;;;5140595;27;20825;-63
2021/10/13 06:48:03;;;;;;;62.23;30.53;;;6.70;99.90;;;;;;5140916;27;20782;-63
2021/10/13 06:50:30;;;;;;;64.23;29.50;;;6.80;99.90;;;;;;5140605;27;20971;-63
2021/10/13 06:52:57;;;;;;;77.67;31.93;;;6.90;99.90;;;;;;5140434;27;20795;-63
2021/10/13 06:55:24;;;;;;;85.43;33.13;;;6.90;99.90;;;;;;5140441;27;20478;-63
2021/10/13 06:57:52;;;;;;;70.33;31.43;;;7.10;99.90;;;;;;5140392;27;20505;-63
2021/10/13 07:00:19;;;;;;;64.73;31.53;;;6.90;99.90;;;;;;5138475;27;20485;-63
2021/10/13 07:02:53;;;;;;;73.97;34.87;;;7.10;99.90;;;;;;5121418;27;20883;-63
2021/10/13 07:05:20;;;;;;;70.93;32.60;;;7.10;99.90;;;;;;5119621;28;20553;-63
2021/10/13 07:07:49;;;;;;;67.20;30.30;;;7.10;99.90;;;;;;5119848;28;20455;-63
2021/10/13 07:10:16;;;;;;;62.43;30.73;;;7.10;99.90;;;;;;5130936;27;20486;-63
2021/10/13 07:12:47;;;;;;;60.07;31.77;;;7.10;99.90;;;;;;5140100;27;20461;-63
2021/10/13 07:15:15;;;;;;;76.10;31.97;;;7.20;99.90;;;;;;5131605;27;20486;-63
2021/10/13 07:17:45;;;;;;;65.07;33.63;;;7.20;99.90;;;;;;5128597;27;20454;-63
2021/10/13 07:20:13;;;;;;;65.47;31.87;;;7.20;99.90;;;;;;5127472;27;20458;-63
2021/10/13 07:22:41;;;;;;;57.40;31.37;;;7.30;99.90;;;;;;5125815;27;20746;-63
2021/10/13 07:25:11;;;;;;;61.13;30.80;;;7.30;99.90;;;;;;5127104;27;20482;-63
2021/10/13 07:27:38;;;;;;;58.20;29.97;;;7.30;99.90;;;;;;5127302;27;20486;-63
2021/10/13 07:30:11;;;;;;;62.10;32.50;;;7.40;99.90;;;;;;5128988;27;20487;-63
2021/10/13 07:32:40;;;;;;;70.13;34.53;;;7.40;99.90;;;;;;5124398;27;20451;-64
2021/10/13 07:35:10;;;;;;;62.80;31.37;;;7.40;99.90;;;;;;5131246;27;20503;-64
2021/10/13 07:37:41;;;;;;;63.77;33.47;;;7.40;99.90;;;;;;5126159;27;20902;-64
2021/10/13 07:40:08;;;;;;;62.33;33.07;;;7.50;99.90;;;;;;5126990;27;20430;-64
2021/10/13 07:42:36;;;;;;;59.07;32.00;;;7.60;99.90;;;;;;5128769;27;20528;-64
2021/10/13 07:45:03;;;;;;;70.13;34.27;;;7.70;99.90;;;;;;5128791;27;20434;-64
2021/10/13 07:47:30;;;;;;;56.63;33.23;;;7.80;99.90;;;;;;5127357;27;20490;-64
2021/10/13 07:50:00;;;;;;;70.23;33.57;;;7.90;99.90;;;;;;5129006;27;20521;-64
2021/10/13 07:52:27;;;;;;;55.53;32.93;;;7.80;99.90;;;;;;5129136;27;20466;-64
2021/10/13 07:54:55;;;;;;;54.17;31.17;;;7.90;99.90;;;;;;5130808;27;20539;-64
2021/10/13 07:57:24;;;;;;;58.17;30.60;;;8.00;99.90;;;;;;5139210;27;20913;-64
2021/10/13 07:59:51;;;;;;;57.80;30.20;;;8.40;99.90;;;;;;5139866;27;20785;-64
2021/10/13 08:02:18;;;;;;;48.10;30.57;;;8.50;99.90;;;;;;5119456;27;20519;-65
2021/10/13 08:04:48;;;;;;;47.43;29.43;;;8.60;99.90;;;;;;5118829;28;20506;-64
2021/10/13 08:07:16;;;;;;;41.10;27.90;;;8.60;99.90;;;;;;5117490;28;20906;-64
2021/10/13 08:09:46;;;;;;;47.80;29.47;;;8.50;99.90;;;;;;5118583;28;20491;-64
2021/10/13 08:12:15;;;;;;;53.23;28.10;;;8.40;99.90;;;;;;5118081;28;20495;-66
2021/10/13 08:14:42;;;;;;;47.47;27.80;;;8.30;99.90;;;;;;5118321;28;20495;-64
2021/10/13 08:17:10;;;;;;;48.03;27.87;;;8.30;99.90;;;;;;5118131;28;20495;-64
2021/10/13 08:19:37;;;;;;;48.73;28.30;;;8.40;99.90;;;;;;5117980;28;20459;-64
2021/10/13 08:22:06;;;;;;;42.97;27.97;;;8.50;99.90;;;;;;5118181;28;20491;-64
2021/10/13 08:24:36;;;;;;;50.33;27.60;;;8.70;99.90;;;;;;5118403;28;20459;-64
2021/10/13 08:27:04;;;;;;;51.70;29.87;;;8.90;99.90;;;;;;5122624;27;20508;-63
2021/10/13 08:29:35;;;;;;;48.93;29.60;;;9.00;99.90;;;;;;5139130;27;20561;-62
2021/10/13 08:32:02;;;;;;;46.63;29.47;;;9.10;99.90;;;;;;5139102;27;20505;-64
2021/10/13 08:34:29;;;;;;;43.10;26.33;;;9.20;99.90;;;;;;5139185;27;20909;-65
2021/10/13 08:36:56;;;;;;;45.27;26.83;;;9.30;99.90;;;;;;5138806;27;20459;-64
2021/10/13 08:39:23;;;;;;;39.70;25.77;;;9.10;99.90;;;;;;5139456;27;20465;-63
2021/10/13 08:41:55;;;;;;;40.97;26.80;;;9.30;99.90;;;;;;5139172;27;20462;-63
2021/10/13 08:44:23;;;;;;;42.83;28.10;;;9.40;99.90;;;;;;5138912;27;20486;-63
2021/10/13 08:46:51;;;;;;;37.33;25.93;;;9.40;99.90;;;;;;5138904;27;20465;-63
2021/10/13 08:49:23;;;;;;;41.57;26.43;;;9.30;99.90;;;;;;5138769;27;20483;-63
2021/10/13 08:51:51;;;;;;;36.37;24.83;;;9.40;99.90;;;;;;5138929;27;20480;-64
2021/10/13 08:54:19;;;;;;;43.90;27.47;;;9.40;99.90;;;;;;5138926;27;20520;-64
2021/10/13 08:56:49;;;;;;;35.73;26.53;;;9.50;99.90;;;;;;5138590;27;20487;-64
2021/10/13 08:59:41;;;;;;;43.77;27.57;;;9.60;99.90;;;;;;5138933;27;20455;-63
2021/10/13 09:02:10;;;;;;;36.63;26.20;;;9.60;99.90;;;;;;5121068;27;20518;-63
2021/10/13 09:04:37;;;;;;;46.27;30.07;;;9.70;99.90;;;;;;5118057;28;20495;-63
2021/10/13 09:07:06;;;;;;;40.67;29.10;;;9.70;99.90;;;;;;5118089;28;20459;-64
2021/10/13 09:09:34;;;;;;;39.17;28.03;;;9.60;99.90;;;;;;5118099;28;20785;-65
2021/10/13 09:12:01;;;;;;;40.17;28.63;;;9.60;99.90;;;;;;5118376;28;20459;-66
2021/10/13 09:14:32;;;;;;;43.70;27.27;;;9.70;99.90;;;;;;5117622;28;20502;-64
2021/10/13 09:17:05;;;;;;;43.57;28.27;;;9.80;99.90;;;;;;5118361;28;20513;-64
2021/10/13 09:19:43;;;;;;;38.60;26.77;;;9.80;99.90;;;;;;5117969;28;20487;-64
2021/10/13 09:22:12;;;;;;;39.73;29.30;;;9.80;99.90;;;;;;5116793;28;20800;-64
2021/10/13 09:24:47;;;;;;;36.50;25.80;;;9.80;99.90;;;;;;5117676;28;20490;-64
2021/10/13 09:27:22;;;;;;;36.27;24.67;;;9.80;99.90;;;;;;5123645;27;20889;-64
2021/10/13 09:29:49;;;;;;;34.20;25.23;;;9.80;99.90;;;;;;5137708;27;20507;-64
2021/10/13 09:32:25;;;;;;;37.27;26.67;;;10.20;99.90;;;;;;5137439;27;20495;-64
2021/10/13 09:34:59;;;;;;;34.63;25.23;;;10.30;99.90;;;;;;5137578;27;20560;-64
2021/10/13 09:37:42;;;;;;;38.90;25.60;;;10.50;99.90;;;;;;5138598;27;20458;-64
2021/10/13 09:40:11;;;;;;;39.27;26.70;;;10.80;99.90;;;;;;5137989;27;20737;-64
2021/10/13 09:42:40;;;;;;;42.23;27.33;;;11.10;99.90;;;;;;5138288;27;20541;-64
2021/10/13 09:45:11;;;;;;;37.60;26.77;;;11.20;99.90;;;;;;5137904;27;20469;-64
2021/10/13 09:47:39;;;;;;;35.53;26.90;;;11.50;99.90;;;;;;5137796;27;20536;-64
2021/10/13 09:50:13;;;;;;;38.87;25.57;;;12.00;99.90;;;;;;5138043;27;20486;-64
2021/10/13 09:52:41;;;;;;;39.43;26.73;;;12.50;99.90;;;;;;5137756;28;20557;-64
2021/10/13 09:55:09;;;;;;;34.67;26.10;;;12.80;99.90;;;;;;5137686;28;20462;-64
2021/10/13 09:57:45;;;;;;;35.83;26.47;;;12.60;99.90;;;;;;5138305;28;20493;-63
2021/10/13 10:00:13;;;;;;;31.40;24.67;;;12.90;99.90;;;;;;5137085;28;20454;-64
2021/10/13 10:02:45;;;;;;;30.37;24.80;;;12.90;1.00;;;;;;5116848;28;20510;-63
2021/10/13 10:05:15;;;;;;;33.77;24.30;;;13.10;99.90;;;;;;5117625;28;20463;-63
2021/10/13 10:07:44;;;;;;;32.80;25.20;;;13.40;99.90;;;;;;5117766;28;20790;-63
2021/10/13 10:10:15;;;;;;;32.20;25.00;;;13.60;89.20;;;;;;5116989;28;20576;-63
2021/10/13 10:13:04;;;;;;;36.73;26.07;;;13.50;83.80;;;;;;5117064;28;20499;-63
2021/10/13 10:15:34;;;;;;;28.47;24.40;;;13.20;47.90;;;;;;5115566;28;20463;-63
2021/10/13 10:18:01;;;;;;;34.90;25.67;;;13.70;99.90;;;;;;5117449;28;20430;-63
2021/10/13 10:20:45;;;;;;;29.87;24.63;;;14.10;45.70;;;;;;5117461;28;20557;-63
2021/10/13 10:23:33;;;;;;;30.87;23.53;;;14.50;5.90;;;;;;5117423;28;20822;-62
2021/10/13 10:26:31;;;;;;;31.97;24.83;;;14.00;1.00;;;;;;5117373;28;20801;-62
2021/10/13 10:28:59;;;;;;;33.50;26.17;;;13.90;1.00;;;;;;5096903;28;20487;-62
2021/10/13 10:31:39;;;;;;;39.33;29.27;;;14.20;1.00;;;;;;5096986;28;20435;-62
2021/10/13 10:34:16;;;;;;;37.17;28.40;;;14.60;1.00;;;;;;5096887;28;20485;-62
2021/10/13 10:37:16;;;;;;;35.53;26.80;;;14.90;1.00;;;;;;5096725;28;20495;-62
2021/10/13 10:40:04;;;;;;;35.20;27.00;;;14.30;1.00;;;;;;5096667;28;20793;-62
2021/10/13 10:43:13;;;;;;;32.87;25.37;;;14.50;1.00;;;;;;5095891;28;20507;-62
2021/10/13 10:45:48;;;;;;;36.53;23.70;;;14.20;1.00;;;;;;5096347;28;20755;-62
2021/10/13 10:48:17;;;;;;;26.20;18.20;;;14.10;1.00;;;;;;5096688;28;20487;-62
2021/10/13 10:50:59;;;;;;;21.33;16.83;;;14.30;1.00;;;;;;5096883;28;20530;-62
2021/10/13 10:53:36;;;;;;;25.40;18.23;;;14.70;1.00;;;;;;5096514;28;20495;-62
2021/10/13 10:56:19;;;;;;;25.20;18.37;;;15.00;1.00;;;;;;5096782;28;20463;-62
2021/10/13 10:59:02;;;;;;;30.10;18.10;;;15.30;1.00;;;;;;5096653;28;20500;-62
2021/10/13 11:01:31;;;;;;;25.30;18.03;;;16.10;1.00;;;;;;5100133;28;20495;-62
2021/10/13 11:03:58;;;;;;;23.57;16.77;;;16.30;1.00;;;;;;5099688;28;20882;-62
2021/10/13 11:06:27;;;;;;;22.20;17.93;;;16.20;1.00;;;;;;5100411;28;20471;-62
2021/10/13 11:09:03;;;;;;;23.67;17.87;;;16.60;1.00;;;;;;5099991;28;20467;-62
2021/10/13 11:11:32;;;;;;;23.50;16.80;;;16.60;1.00;;;;;;5100402;28;20762;-62
2021/10/13 11:14:11;;;;;;;26.23;17.07;;;16.80;1.00;;;;;;5115390;27;20833;-62
2021/10/13 11:16:40;;;;;;;21.73;14.63;;;15.50;1.00;;;;;;5120480;28;20470;-62
2021/10/13 11:19:15;;;;;;;20.97;14.07;;;14.90;1.00;;;;;;5121440;27;20463;-62
2021/10/13 11:21:43;;;;;;;19.43;15.00;;;14.60;1.00;;;;;;5120508;28;20881;-62
2021/10/13 11:24:11;;;;;;;25.00;17.63;;;14.80;1.00;;;;;;5119736;28;20507;-62
2021/10/13 11:26:38;;;;;;;23.30;18.53;;;14.50;1.00;;;;;;5120749;27;20499;-62
2021/10/13 11:29:26;;;;;;;24.80;21.00;;;13.70;1.00;;;;;;5140563;27;20494;-62
2021/10/13 11:32:15;;;;;;;25.43;22.17;;;13.20;1.00;;;;;;5140196;27;20489;-61
2021/10/13 11:34:44;;;;;;;23.80;21.10;;;12.70;1.00;;;;;;5140528;27;20478;-61
2021/10/13 11:37:11;;;;;;;22.73;20.17;;;12.60;27.60;;;;;;5140800;27;20789;-61
2021/10/13 11:39:49;;;;;;;25.63;22.90;;;12.40;29.00;;;;;;5140261;27;20490;-61
2021/10/13 11:42:18;;;;;;;24.93;22.40;;;12.20;55.70;;;;;;5140206;27;20459;-61
2021/10/13 11:44:50;;;;;;;24.33;21.93;;;11.80;99.90;;;;;;5140002;27;20465;-61
2021/10/13 11:47:33;;;;;;;28.70;22.70;;;11.80;99.90;;;;;;5139496;27;20472;-61
2021/10/13 11:50:01;;;;;;;26.10;20.40;;;12.50;99.90;;;;;;5140515;27;20468;-62
2021/10/13 11:52:32;;;;;;;21.03;19.03;;;13.20;17.50;;;;;;5140061;27;20887;-62
2021/10/13 11:55:06;;;;;;;18.90;16.60;;;14.00;1.00;;;;;;5139874;27;20484;-62
2021/10/13 11:57:34;;;;;;;18.27;16.63;;;14.10;1.00;;;;;;5140459;27;20500;-62
2021/10/13 12:00:22;;;;;;;21.43;18.33;;;14.20;1.00;;;;;;5140411;27;20923;-62
2021/10/13 12:03:01;;;;;;;18.83;17.13;;;14.50;1.00;;;;;;5098593;28;20484;-62
2021/10/13 12:05:30;;;;;;;18.83;16.43;;;14.10;1.00;;;;;;5098949;28;20468;-62
2021/10/13 12:08:02;;;;;;;17.63;15.83;;;13.90;1.00;;;;;;5099266;28;20460;-62
2021/10/13 12:10:42;;;;;;;19.10;17.10;;;14.50;1.00;;;;;;5097694;28;20578;-62
2021/10/13 12:13:13;;;;;;;17.20;14.43;;;15.40;1.00;;;;;;5098895;28;20492;-62
2021/10/13 12:15:41;;;;;;;15.90;14.40;;;15.60;1.00;;;;;;5098856;28;20507;-62
2021/10/13 12:18:21;;;;;;;14.73;13.40;;;15.90;1.00;;;;;;5098218;28;20460;-62
2021/10/13 12:20:53;;;;;;;11.03;9.90;;;16.80;1.00;;;;;;5098690;28;20456;-61
2021/10/13 12:23:22;;;;;;;12.13;9.60;;;16.00;1.00;;;;;;5098889;28;20461;-61
2021/10/13 12:25:52;;;;;;;11.20;10.10;;;15.60;1.00;;;;;;5098542;28;20795;-61
2021/10/13 12:28:22;;;;;;;11.33;7.83;;;15.40;1.00;;;;;;5128429;27;20490;-61
2021/10/13 12:30:58;;;;;;;8.10;7.03;;;15.30;1.00;;;;;;5139034;27;20465;-61
2021/10/13 12:33:27;;;;;;;13.23;7.20;;;14.60;1.00;;;;;;5139008;27;20864;-61
2021/10/13 12:36:08;;;;;;;14.13;8.33;;;14.50;1.00;;;;;;5139305;27;20502;-61
2021/10/13 12:38:45;;;;;;;10.43;6.70;;;14.50;1.00;;;;;;5139117;27;20885;-61
2021/10/13 12:41:16;;;;;;;11.17;6.30;;;14.40;1.00;;;;;;5139433;27;20501;-62
2021/10/13 12:43:45;;;;;;;7.93;6.30;;;14.80;1.00;;;;;;5139226;27;20587;-61
2021/10/13 12:46:28;;;;;;;8.00;5.00;;;15.00;1.00;;;;;;5139133;27;20458;-59
2021/10/13 12:49:12;;;;;;;10.80;6.80;;;15.00;1.00;;;;;;5139045;27;20913;-60
2021/10/13 12:51:49;;;;;;;7.47;5.53;;;14.70;1.00;;;;;;5139074;27;20868;-61
2021/10/13 12:54:17;;;;;;;9.37;6.30;;;14.00;1.00;;;;;;5124116;27;20494;-61
2021/10/13 12:56:52;;;;;;;7.37;6.00;;;13.90;1.00;;;;;;5118239;28;20459;-60
2021/10/13 12:59:19;;;;;;;7.80;6.30;;;13.70;1.00;;;;;;5118330;28;20495;-60